Time;durP1;ratioP1;P1;durP2;ratioP2;P2;SDS_P1;SDS_P2;PMS_P1;PMS_P2;Temp;Humidity;BMP_temperature;BMP_pressure;BME280_temperature;BME280_humidity;BME280_pressure;Samples;Min_cycle;Max_cycle;Signal;HPM_P1;HPM_P2
2023/09/10 00:01:00;;;;;;;8.55;7.70;;;;;;;23.89;36.73;101314.19;5008478;28;20037;-68
2023/09/10 00:03:28;;;;;;;10.98;8.35;;;;;;;23.89;37.05;101310.53;5008218;28;20465;-67
2023/09/10 00:05:56;;;;;;;10.18;8.30;;;;;;;23.91;36.80;101309.22;5019829;28;20398;-68
2023/09/10 00:08:24;;;;;;;10.10;8.40;;;;;;;23.91;36.95;101312.03;5005313;28;20125;-67
2023/09/10 00:10:52;;;;;;;12.65;8.02;;;;;;;23.92;36.83;101310.94;5006913;28;20042;-66
2023/09/10 00:13:21;;;;;;;9.73;7.45;;;;;;;23.95;36.80;101315.28;5008574;28;20358;-69
2023/09/10 00:15:49;;;;;;;10.18;8.50;;;;;;;23.93;36.87;101309.03;5004429;28;20113;-67
2023/09/10 00:18:17;;;;;;;9.88;7.85;;;;;;;23.94;36.88;101307.94;5007121;28;20113;-67
2023/09/10 00:20:46;;;;;;;10.38;7.88;;;;;;;23.94;36.87;101310.75;5008314;28;20374;-68
2023/09/10 00:23:14;;;;;;;9.18;7.00;;;;;;;23.94;36.71;101303.22;5008525;28;20818;-71
2023/09/10 00:25:42;;;;;;;9.02;7.40;;;;;;;23.94;37.02;101306.03;5006085;28;20038;-69
2023/09/10 00:28:10;;;;;;;9.57;7.70;;;;;;;23.94;36.91;101311.59;5007981;28;20547;-69
2023/09/10 00:30:39;;;;;;;10.15;7.20;;;;;;;23.96;36.80;101306.69;5010427;28;20485;-64
2023/09/10 00:33:07;;;;;;;9.10;7.15;;;;;;;23.93;36.89;101304.28;5011582;28;20038;-66
2023/09/10 00:35:35;;;;;;;8.93;7.43;;;;;;;23.92;36.93;101302.56;5011616;28;20244;-66
2023/09/10 00:38:04;;;;;;;9.27;7.63;;;;;;;23.92;37.04;101298.91;5005881;28;20500;-72
2023/09/10 00:40:32;;;;;;;8.90;6.85;;;;;;;23.89;36.79;101294.63;5005190;28;20042;-68
2023/09/10 00:43:01;;;;;;;8.95;7.03;;;;;;;23.88;36.75;101300.41;5023838;28;20048;-63
2023/09/10 00:45:31;;;;;;;9.70;7.45;;;;;;;23.89;36.96;101293.75;5010103;28;20058;-64
2023/09/10 00:48:01;;;;;;;8.77;7.70;;;;;;;23.86;37.13;101297.84;5004757;28;20097;-62
2023/09/10 00:50:29;;;;;;;8.88;7.25;;;;;;;23.83;36.83;101291.78;5013993;28;20065;-65
2023/09/10 00:53:00;;;;;;;8.82;7.50;;;;;;;23.84;37.02;101301.91;5030015;28;20037;-64
2023/09/10 00:55:32;;;;;;;8.73;7.28;;;;;;;23.83;37.19;101300.16;5029144;28;20113;-63
2023/09/10 00:58:00;;;;;;;8.45;7.30;;;;;;;23.80;37.01;101298.69;5017429;28;20136;-63
2023/09/10 01:00:30;;;;;;;9.45;7.38;;;;;;;23.82;37.06;101301.28;5012576;28;20066;-69
2023/09/10 01:03:00;;;;;;;8.40;7.18;;;;;;;23.83;36.97;101301.03;5012200;28;20052;-63
2023/09/10 01:05:29;;;;;;;8.68;7.22;;;;;;;23.80;37.10;101301.47;5009926;28;20116;-62
2023/09/10 01:07:58;;;;;;;8.75;7.65;;;;;;;23.81;37.08;101297.63;5011374;28;20052;-64
2023/09/10 01:10:32;;;;;;;8.93;7.07;;;;;;;23.84;37.08;101299.09;5011195;28;20050;-65
2023/09/10 01:13:09;;;;;;;9.60;7.85;;;;;;;23.82;37.15;101302.13;5009776;28;20054;-65
2023/09/10 01:15:43;;;;;;;9.60;7.40;;;;;;;23.81;37.18;101300.41;5010406;28;20045;-63
2023/09/10 01:18:22;;;;;;;10.43;7.70;;;;;;;23.80;37.04;101300.63;5008460;28;20038;-72
2023/09/10 01:21:06;;;;;;;10.15;7.78;;;;;;;23.77;37.32;101299.09;5008145;28;20108;-70
2023/09/10 01:23:49;;;;;;;9.30;7.93;;;;;;;23.74;37.22;101297.53;5006267;28;20517;-70
2023/09/10 01:26:19;;;;;;;8.57;7.45;;;;;;;23.68;37.02;101294.72;5009753;28;20532;-70
2023/09/10 01:28:47;;;;;;;8.95;7.15;;;;;;;23.62;37.02;101293.66;5007465;28;20236;-71
2023/09/10 01:31:15;;;;;;;9.43;7.38;;;;;;;23.59;37.19;101296.00;5004876;28;20039;-73
2023/09/10 01:33:52;;;;;;;8.82;7.72;;;;;;;23.59;37.48;101296.00;5005802;28;20046;-72
2023/09/10 01:36:27;;;;;;;8.45;7.45;;;;;;;23.52;37.60;101286.72;5003957;28;20084;-72
2023/09/10 01:39:02;;;;;;;9.63;7.60;;;;;;;23.48;37.54;101293.81;5005254;28;20042;-71
2023/09/10 01:41:33;;;;;;;9.02;7.97;;;;;;;23.44;37.80;101292.50;5005535;28;20053;-73
2023/09/10 01:44:02;;;;;;;8.48;7.60;;;;;;;23.41;37.53;101299.38;5009055;28;20042;-72
2023/09/10 01:46:34;;;;;;;10.18;7.65;;;;;;;23.38;37.35;101297.00;4999959;28;20437;-71
2023/09/10 01:49:03;;;;;;;8.63;7.35;;;;;;;23.35;37.61;101292.69;5004858;28;20042;-71
2023/09/10 01:51:30;;;;;;;11.38;7.78;;;;;;;23.35;37.95;101289.88;5003923;28;20049;-71
2023/09/10 01:53:59;;;;;;;9.65;7.43;;;;;;;23.33;37.79;101294.81;5005937;28;20128;-72
2023/09/10 01:56:26;;;;;;;9.35;7.97;;;;;;;23.33;37.88;101291.19;5004398;28;20042;-72
2023/09/10 01:58:56;;;;;;;8.73;7.82;;;;;;;23.33;37.97;101294.81;4997010;28;20034;-72
2023/09/10 02:01:24;;;;;;;9.13;7.50;;;;;;;23.29;37.76;101299.09;5003714;28;20089;-72
2023/09/10 02:03:52;;;;;;;8.98;7.72;;;;;;;23.29;37.84;101301.91;5008481;28;20053;-74
2023/09/10 02:06:20;;;;;;;9.75;7.20;;;;;;;23.28;38.14;101299.31;5004226;28;20034;-71
2023/09/10 02:08:48;;;;;;;10.02;8.20;;;;;;;23.26;37.86;101305.09;5005052;28;20046;-73
2023/09/10 02:11:19;;;;;;;10.13;8.02;;;;;;;23.24;37.95;101301.66;5005261;28;20045;-72
2023/09/10 02:13:47;;;;;;;10.52;7.78;;;;;;;23.20;37.99;101302.28;5008832;28;20575;-74
2023/09/10 02:16:16;;;;;;;10.07;7.95;;;;;;;23.20;37.83;101308.72;5005228;28;20129;-72
2023/09/10 02:18:44;;;;;;;9.25;7.63;;;;;;;23.15;38.05;101302.88;5004526;28;20050;-72
2023/09/10 02:21:12;;;;;;;10.43;7.80;;;;;;;23.12;37.99;101305.22;5002390;28;20046;-73
2023/09/10 02:23:43;;;;;;;9.57;7.88;;;;;;;23.11;38.04;101309.06;5005811;28;20044;-71
2023/09/10 02:26:11;;;;;;;8.93;7.50;;;;;;;23.06;38.01;101306.91;5001267;28;20098;-71
2023/09/10 02:28:39;;;;;;;9.07;7.65;;;;;;;23.04;38.21;101309.03;5003494;28;20046;-72
2023/09/10 02:31:08;;;;;;;9.40;7.78;;;;;;;23.03;38.26;101310.09;5001138;28;20050;-72
2023/09/10 02:33:37;;;;;;;8.90;7.80;;;;;;;23.03;38.37;101308.16;5005599;28;20049;-72
2023/09/10 02:36:06;;;;;;;9.65;7.95;;;;;;;22.99;38.19;101304.06;5001212;28;20046;-71
2023/09/10 02:38:33;;;;;;;9.45;7.53;;;;;;;22.97;38.14;101306.22;5003862;28;20870;-72
2023/09/10 02:41:02;;;;;;;9.80;7.53;;;;;;;22.95;38.34;101310.25;5002277;28;20314;-72
2023/09/10 02:43:30;;;;;;;8.85;7.10;;;;;;;22.93;38.47;101313.25;5004777;28;20120;-71
2023/09/10 02:45:58;;;;;;;9.40;7.60;;;;;;;22.92;38.35;101310.69;5005433;28;20033;-72
2023/09/10 02:48:26;;;;;;;8.50;7.07;;;;;;;22.92;38.47;101319.91;5007597;28;20135;-71
2023/09/10 02:50:55;;;;;;;8.52;7.60;;;;;;;22.93;38.54;101323.56;5003280;28;20521;-72
2023/09/10 02:53:23;;;;;;;11.45;8.70;;;;;;;22.90;38.77;101324.84;5006479;28;20445;-73
2023/09/10 02:55:59;;;;;;;8.90;7.70;;;;;;;22.93;38.81;101321.63;5005572;28;20069;-72
2023/09/10 02:58:27;;;;;;;9.70;7.82;;;;;;;22.88;38.60;101328.91;5000275;28;20042;-72
2023/09/10 03:00:55;;;;;;;9.65;7.50;;;;;;;22.87;38.53;101324.38;5003513;28;20050;-72
2023/09/10 03:03:24;;;;;;;9.32;7.40;;;;;;;22.84;38.63;101311.69;5005806;28;20046;-71
2023/09/10 03:05:52;;;;;;;9.52;8.45;;;;;;;22.82;38.62;101315.75;5003511;28;20050;-71
2023/09/10 03:08:21;;;;;;;9.68;7.78;;;;;;;22.82;38.44;101332.50;5010471;28;20409;-71
2023/09/10 03:10:49;;;;;;;9.65;7.72;;;;;;;22.77;38.78;101319.16;5007722;28;20068;-71
2023/09/10 03:13:17;;;;;;;9.88;7.63;;;;;;;22.73;38.65;101317.00;5004703;28;20100;-72
2023/09/10 03:15:48;;;;;;;8.57;7.63;;;;;;;22.73;39.13;101328.16;5013559;28;20042;-71
2023/09/10 03:18:16;;;;;;;10.60;7.90;;;;;;;22.68;38.75;101319.50;5010669;28;20084;-72
2023/09/10 03:20:44;;;;;;;9.68;7.93;;;;;;;22.62;38.63;101324.84;5003610;28;20042;-73
2023/09/10 03:23:12;;;;;;;10.55;7.78;;;;;;;22.60;38.99;101320.53;5006469;28;20050;-73
2023/09/10 03:25:41;;;;;;;9.55;8.07;;;;;;;22.56;39.05;101322.88;5008484;28;20042;-72
2023/09/10 03:28:09;;;;;;;10.70;8.00;;;;;;;22.51;39.15;101316.13;5007487;28;20528;-72
2023/09/10 03:30:38;;;;;;;9.63;8.40;;;;;;;22.46;39.17;101313.94;5002612;28;20041;-71
2023/09/10 03:33:05;;;;;;;8.90;7.95;;;;;;;22.42;39.27;101315.44;5004789;28;20081;-71
2023/09/10 03:35:34;;;;;;;10.07;8.35;;;;;;;22.38;39.18;101318.81;5003769;28;20048;-72
2023/09/10 03:38:02;;;;;;;11.55;8.02;;;;;;;22.34;39.13;101312.78;5002140;28;20038;-71
2023/09/10 03:40:30;;;;;;;10.35;8.43;;;;;;;22.31;39.25;101327.13;5005241;28;20053;-72
2023/09/10 03:42:59;;;;;;;10.80;8.55;;;;;;;22.28;39.44;101328.38;5002362;28;20060;-73
2023/09/10 03:45:27;;;;;;;9.07;8.18;;;;;;;22.24;39.64;101335.44;5001969;28;20122;-71
2023/09/10 03:47:55;;;;;;;9.00;7.75;;;;;;;22.21;39.46;101333.03;5004319;28;20386;-72
2023/09/10 03:50:23;;;;;;;8.75;7.72;;;;;;;22.19;39.58;101328.69;5005614;28;20401;-71
2023/09/10 03:52:52;;;;;;;8.90;7.95;;;;;;;22.16;39.67;101321.63;5006160;28;20033;-74
2023/09/10 03:55:20;;;;;;;8.82;7.70;;;;;;;22.13;39.71;101335.94;5015480;28;20133;-72
2023/09/10 03:57:48;;;;;;;9.48;8.32;;;;;;;22.11;39.35;101337.19;5007163;28;20046;-72
2023/09/10 04:00:19;;;;;;;10.80;8.10;;;;;;;22.10;39.63;101332.69;5005854;28;20034;-73
2023/09/10 04:02:47;;;;;;;9.88;8.40;;;;;;;22.05;39.64;101330.50;5006915;28;20044;-72
2023/09/10 04:05:15;;;;;;;9.60;8.10;;;;;;;22.04;39.68;101328.78;5016416;28;20042;-71
2023/09/10 04:07:43;;;;;;;8.98;8.02;;;;;;;22.01;39.80;101333.91;5011421;28;20050;-73
2023/09/10 04:10:11;;;;;;;9.38;8.35;;;;;;;22.00;39.73;101323.81;5022158;28;20505;-73
2023/09/10 04:12:39;;;;;;;9.30;8.18;;;;;;;21.98;39.85;101323.13;5013686;28;20096;-72
2023/09/10 04:15:08;;;;;;;10.13;8.20;;;;;;;21.98;39.69;101337.06;5009276;28;20515;-71
2023/09/10 04:17:37;;;;;;;9.65;8.52;;;;;;;21.97;39.84;101327.84;5010473;28;20084;-70
2023/09/10 04:20:07;;;;;;;9.50;8.05;;;;;;;21.95;39.96;101327.19;5008234;28;20409;-71
2023/09/10 04:22:35;;;;;;;9.73;8.27;;;;;;;21.93;39.81;101325.66;5010549;28;20053;-72
2023/09/10 04:25:04;;;;;;;9.43;8.35;;;;;;;21.93;39.86;101325.66;5011999;28;20052;-71
2023/09/10 04:27:33;;;;;;;10.65;8.85;;;;;;;21.91;39.65;101325.00;5015650;28;20069;-72
2023/09/10 04:39:27;;;;;;;11.32;8.75;;;;;;;21.78;39.94;101323.75;4979233;28;20521;-71
2023/09/10 04:41:55;;;;;;;10.25;8.95;;;;;;;21.79;39.93;101328.25;4948098;28;20514;-71
2023/09/10 04:44:23;;;;;;;10.40;8.60;;;;;;;21.77;39.89;101321.16;4975668;28;20039;-71
2023/09/10 04:46:54;;;;;;;9.35;8.35;;;;;;;21.77;39.83;101321.16;4944223;28;20410;-72
2023/09/10 04:49:24;;;;;;;9.75;8.68;;;;;;;21.76;40.15;101325.03;4971887;28;20049;-72
2023/09/10 04:51:52;;;;;;;9.98;8.82;;;;;;;21.74;40.01;101329.91;5006816;28;20484;-73
2023/09/10 04:54:20;;;;;;;9.70;8.73;;;;;;;21.72;39.83;101320.88;4976732;28;20430;-72
2023/09/10 04:56:50;;;;;;;10.32;9.25;;;;;;;21.70;39.86;101321.06;4975109;28;20062;-73
2023/09/10 04:59:18;;;;;;;11.10;8.68;;;;;;;21.68;40.15;101326.00;4970506;28;20489;-72
2023/09/10 05:01:46;;;;;;;9.82;8.50;;;;;;;21.66;40.03;101333.69;4971158;28;20042;-73
2023/09/10 05:04:14;;;;;;;9.63;8.63;;;;;;;21.65;40.12;101323.59;4970157;28;20108;-72
2023/09/10 05:06:44;;;;;;;10.98;8.93;;;;;;;21.66;40.30;101330.91;4990465;28;20093;-72
2023/09/10 05:09:11;;;;;;;10.52;8.70;;;;;;;21.62;40.20;101326.75;4971291;28;20061;-73
2023/09/10 05:11:40;;;;;;;10.27;9.00;;;;;;;21.62;40.31;101328.69;5004800;28;20046;-73
2023/09/10 05:14:08;;;;;;;10.70;8.63;;;;;;;21.62;40.29;101328.69;4972793;28;20058;-71
2023/09/10 05:16:36;;;;;;;10.63;9.38;;;;;;;21.62;40.32;101334.25;4986757;28;20065;-72
2023/09/10 05:19:04;;;;;;;11.43;8.93;;;;;;;21.60;40.24;101337.25;4986922;28;20046;-73
2023/09/10 05:21:31;;;;;;;10.57;8.77;;;;;;;21.60;40.16;101336.41;5004719;28;20069;-72
2023/09/10 05:24:01;;;;;;;10.30;8.48;;;;;;;21.60;40.44;101340.06;4970065;28;20073;-72
2023/09/10 05:26:29;;;;;;;10.40;8.82;;;;;;;21.58;40.48;101344.06;4971184;28;20053;-72
2023/09/10 05:28:57;;;;;;;10.18;9.10;;;;;;;21.58;40.45;101344.94;4969290;28;20046;-73
2023/09/10 05:31:25;;;;;;;10.43;8.18;;;;;;;21.57;40.45;101348.78;4987055;28;20046;-72
2023/09/10 05:33:53;;;;;;;9.43;8.50;;;;;;;21.57;40.81;101345.13;4991794;28;20046;-70
2023/09/10 05:36:21;;;;;;;9.80;8.80;;;;;;;21.55;40.65;101348.09;5001727;28;20042;-72
2023/09/10 05:38:52;;;;;;;9.57;8.68;;;;;;;21.55;40.42;101339.75;5002472;28;20117;-69
2023/09/10 05:41:21;;;;;;;9.90;8.85;;;;;;;21.57;40.77;101347.91;4971379;28;20129;-72
2023/09/10 05:43:49;;;;;;;9.70;8.25;;;;;;;21.53;40.59;101342.72;4987357;28;20050;-72
2023/09/10 05:46:18;;;;;;;9.93;8.90;;;;;;;21.53;40.70;101341.88;5000849;28;20045;-73
2023/09/10 05:48:46;;;;;;;9.40;8.30;;;;;;;21.52;41.00;101345.69;4970040;28;20053;-73
2023/09/10 05:51:14;;;;;;;8.70;7.75;;;;;;;21.52;40.52;101340.13;4966724;28;20047;-72
2023/09/10 05:53:44;;;;;;;8.63;7.72;;;;;;;21.51;40.72;101344.00;4999612;28;20069;-73
2023/09/10 05:56:12;;;;;;;9.63;8.38;;;;;;;21.51;40.65;101344.00;5000248;28;20537;-71
2023/09/10 05:58:42;;;;;;;10.15;9.07;;;;;;;21.52;40.93;101342.91;4985672;28;20046;-72
2023/09/10 06:01:10;;;;;;;10.63;9.07;;;;;;;21.49;40.97;101344.19;4968086;28;20101;-72
2023/09/10 06:03:38;;;;;;;9.18;8.20;;;;;;;21.51;40.87;101344.00;4972999;28;20081;-72
2023/09/10 06:06:07;;;;;;;9.07;8.18;;;;;;;21.50;41.07;101348.72;5001104;28;20038;-73
2023/09/10 06:08:35;;;;;;;10.10;8.57;;;;;;;21.52;41.49;101351.28;5001859;28;20042;-71
2023/09/10 06:11:04;;;;;;;9.98;8.30;;;;;;;21.53;41.42;101351.09;4999437;28;20066;-73
2023/09/10 06:13:32;;;;;;;9.18;8.27;;;;;;;21.56;41.54;101348.97;4988359;28;20044;-71
2023/09/10 06:16:03;;;;;;;10.60;8.73;;;;;;;21.63;41.36;101359.13;4969175;28;20444;-72
2023/09/10 06:18:31;;;;;;;9.80;8.13;;;;;;;21.63;41.40;101356.34;4970196;28;20130;-73
2023/09/10 06:20:59;;;;;;;9.77;8.77;;;;;;;21.69;41.28;101358.34;4986056;28;20416;-72
2023/09/10 06:23:27;;;;;;;10.02;8.52;;;;;;;21.74;41.24;101364.22;4989894;28;20053;-73
2023/09/10 06:25:55;;;;;;;9.30;8.32;;;;;;;21.80;41.34;101356.97;4969795;28;20065;-72
2023/09/10 06:28:24;;;;;;;9.50;8.57;;;;;;;21.85;41.38;101362.81;5002970;28;20053;-72
2023/09/10 06:30:52;;;;;;;9.95;8.43;;;;;;;21.89;41.49;101364.16;4971341;28;20046;-72
2023/09/10 06:33:21;;;;;;;9.68;8.65;;;;;;;21.96;41.22;101370.72;4975625;28;20057;-72
2023/09/10 06:35:49;;;;;;;10.50;8.25;;;;;;;21.98;41.38;101362.16;4988399;28;20042;-71
2023/09/10 06:38:17;;;;;;;10.18;9.05;;;;;;;22.01;41.32;101373.78;4997266;28;20048;-72
2023/09/10 06:40:46;;;;;;;10.10;8.35;;;;;;;22.06;41.25;101376.84;4997130;28;20128;-72
2023/09/10 06:43:14;;;;;;;9.73;7.65;;;;;;;22.11;41.42;101374.31;4970715;28;20053;-72
2023/09/10 06:45:56;;;;;;;8.88;7.80;;;;;;;22.14;41.47;101378.63;4971690;28;20214;-72
2023/09/10 06:48:25;;;;;;;8.90;7.90;;;;;;;22.26;41.61;101379.84;5009429;28;20138;-70
2023/09/10 06:50:53;;;;;;;9.00;7.85;;;;;;;22.31;41.47;101379.25;4981631;28;20327;-72
2023/09/10 06:53:21;;;;;;;11.27;8.13;;;;;;;22.39;41.61;101382.75;4989568;28;20121;-72
2023/09/10 06:55:49;;;;;;;11.02;8.40;;;;;;;22.48;41.68;101384.34;5000290;28;20397;-72
2023/09/10 06:58:17;;;;;;;8.98;7.50;;;;;;;22.60;41.86;101388.34;4981743;28;20129;-72
2023/09/10 07:00:45;;;;;;;10.23;7.57;;;;;;;22.74;41.92;101378.19;4981316;28;20144;-72
2023/09/10 07:03:13;;;;;;;9.23;7.82;;;;;;;22.89;42.17;101389.25;4985646;28;20141;-72
2023/09/10 07:05:43;;;;;;;10.00;7.75;;;;;;;23.10;42.16;101388.31;5000005;28;20042;-72
2023/09/10 07:08:12;;;;;;;10.80;8.00;;;;;;;23.27;42.29;101386.94;4977150;28;20054;-71
2023/09/10 07:10:40;;;;;;;11.70;7.95;;;;;;;23.47;42.33;101385.16;4985101;28;20147;-72
2023/09/10 07:13:08;;;;;;;10.45;7.80;;;;;;;23.70;42.18;101387.63;4985583;28;20034;-69
2023/09/10 07:15:36;;;;;;;9.88;7.70;;;;;;;23.95;41.66;101385.16;4988172;28;20050;-72
2023/09/10 07:18:05;;;;;;;8.70;7.72;;;;;;;24.19;41.70;101389.31;4985952;28;20093;-72
2023/09/10 07:20:33;;;;;;;10.07;7.80;;;;;;;24.42;41.49;101390.69;4983466;28;20050;-72
2023/09/10 07:23:03;;;;;;;10.50;7.20;;;;;;;24.69;41.36;101391.56;4984677;28;20042;-72
2023/09/10 07:25:31;;;;;;;10.30;7.68;;;;;;;24.93;40.65;101392.00;4998695;28;20085;-72
2023/09/10 07:27:59;;;;;;;8.18;6.63;;;;;;;25.16;40.49;101390.47;4978272;28;20046;-69
2023/09/10 07:30:27;;;;;;;10.23;7.10;;;;;;;25.41;40.07;101400.97;4986431;28;20571;-72
2023/09/10 07:32:56;;;;;;;7.95;6.55;;;;;;;25.62;39.90;101395.16;4984856;28;20049;-71
2023/09/10 07:35:23;;;;;;;9.23;6.97;;;;;;;25.84;39.14;101399.38;4991764;28;20049;-71
2023/09/10 07:37:53;;;;;;;8.20;6.47;;;;;;;26.03;38.88;101397.56;5000164;28;20081;-72
2023/09/10 07:40:22;;;;;;;8.38;6.47;;;;;;;26.26;38.24;101417.53;4982016;28;20485;-71
2023/09/10 07:42:51;;;;;;;8.02;6.13;;;;;;;26.41;38.39;101405.13;4985466;28;20074;-74
2023/09/10 07:45:19;;;;;;;7.28;6.07;;;;;;;26.57;37.37;101408.25;4982704;28;20133;-73
2023/09/10 07:47:48;;;;;;;8.30;6.25;;;;;;;26.70;37.08;101408.19;4985486;28;20042;-74
2023/09/10 07:50:16;;;;;;;8.18;6.18;;;;;;;26.78;36.59;101415.47;4983140;28;20038;-71
2023/09/10 07:52:44;;;;;;;8.80;6.18;;;;;;;26.86;36.32;101415.19;4982259;28;20424;-72
2023/09/10 07:55:12;;;;;;;10.98;6.43;;;;;;;26.90;35.81;101418.38;4984567;28;20394;-74
2023/09/10 07:57:41;;;;;;;7.97;6.10;;;;;;;26.94;35.54;101416.84;4983679;28;20050;-73
2023/09/10 08:00:10;;;;;;;9.77;5.95;;;;;;;26.93;35.87;101421.59;4983984;28;20132;-70
2023/09/10 08:02:40;;;;;;;8.18;6.28;;;;;;;26.88;35.24;101417.75;4997285;28;20049;-74
2023/09/10 08:05:09;;;;;;;8.77;6.25;;;;;;;26.89;35.32;101420.31;4984336;28;20054;-73
2023/09/10 08:07:38;;;;;;;8.35;6.13;;;;;;;26.86;35.21;101418.00;4986018;28;20228;-75
2023/09/10 08:10:06;;;;;;;7.93;5.57;;;;;;;26.86;35.04;101418.00;4985396;28;20035;-73
2023/09/10 08:12:34;;;;;;;7.82;6.30;;;;;;;26.84;35.07;101413.69;4967992;28;20108;-74
2023/09/10 08:15:04;;;;;;;8.52;6.20;;;;;;;26.86;35.34;101411.50;4984341;28;20531;-73
2023/09/10 08:17:34;;;;;;;10.23;6.00;;;;;;;26.84;35.19;101414.53;4985095;28;20046;-73
2023/09/10 08:20:03;;;;;;;8.20;5.65;;;;;;;26.84;35.27;101411.75;4984139;28;20222;-72
2023/09/10 08:22:31;;;;;;;7.30;6.03;;;;;;;26.85;35.19;101419.06;4984685;28;20057;-73
2023/09/10 08:24:59;;;;;;;8.88;5.72;;;;;;;26.86;35.33;101417.13;4982057;28;20046;-71
2023/09/10 08:27:27;;;;;;;6.75;6.05;;;;;;;26.87;35.65;101414.09;4979410;28;20466;-73
2023/09/10 08:29:55;;;;;;;9.00;6.60;;;;;;;26.89;35.20;101417.50;4974636;28;20050;-71
2023/09/10 08:32:24;;;;;;;9.88;6.30;;;;;;;26.92;34.84;101417.06;4976716;28;20046;-72
2023/09/10 08:34:52;;;;;;;9.07;6.03;;;;;;;26.90;35.34;101404.34;4976865;28;20050;-70
2023/09/10 08:37:20;;;;;;;11.82;6.22;;;;;;;26.92;35.23;101419.00;4977238;28;20078;-73
2023/09/10 08:39:49;;;;;;;10.77;6.20;;;;;;;26.92;34.94;101410.59;4978680;28;20497;-72
2023/09/10 08:42:24;;;;;;;8.52;6.15;;;;;;;26.95;34.52;101408.19;4982375;28;20080;-73
2023/09/10 08:44:56;;;;;;;9.60;6.20;;;;;;;26.95;34.88;101411.00;4981584;28;20042;-71
2023/09/10 08:47:26;;;;;;;8.48;5.90;;;;;;;26.94;34.70;101409.28;4980010;28;20086;-71
2023/09/10 08:50:02;;;;;;;8.00;5.55;;;;;;;26.98;34.68;101402.09;4980302;28;20058;-72
2023/09/10 08:52:32;;;;;;;9.70;5.57;;;;;;;26.98;35.20;101404.91;4994794;28;20377;-70
2023/09/10 08:55:00;;;;;;;8.77;5.57;;;;;;;27.00;34.96;101393.44;4981028;28;20112;-71
2023/09/10 08:57:30;;;;;;;6.47;5.40;;;;;;;27.05;35.28;101396.41;4981073;28;20141;-71
2023/09/10 08:59:59;;;;;;;7.43;5.63;;;;;;;27.07;34.90;101394.22;4981114;28;20112;-71
2023/09/10 09:02:28;;;;;;;6.85;5.75;;;;;;;27.13;34.98;101394.16;4979881;28;20132;-72
2023/09/10 09:04:57;;;;;;;7.40;5.50;;;;;;;27.15;35.02;101391.13;4979366;28;20057;-72
2023/09/10 09:07:32;;;;;;;7.90;5.97;;;;;;;27.22;34.57;101393.91;4978914;28;20042;-72
2023/09/10 09:10:03;;;;;;;7.53;6.07;;;;;;;27.25;34.65;101391.50;4995504;28;20806;-72
2023/09/10 09:12:35;;;;;;;7.10;5.38;;;;;;;27.25;34.63;101388.69;4985531;28;20050;-72
2023/09/10 09:15:05;;;;;;;8.45;5.18;;;;;;;27.30;34.98;101391.66;4988816;28;20117;-73
2023/09/10 09:17:36;;;;;;;7.05;5.57;;;;;;;27.39;34.48;101393.06;5003217;28;20047;-74
2023/09/10 09:20:08;;;;;;;7.55;5.63;;;;;;;27.41;34.47;101398.47;5000740;28;20426;-71
2023/09/10 09:22:40;;;;;;;8.45;5.60;;;;;;;27.51;34.52;101395.97;4987240;28;20089;-73
2023/09/10 09:25:09;;;;;;;;;;;;;;;27.22;35.22;101389.13;4991018;28;20042;-71
2023/09/10 09:27:38;;;;;;;8.68;4.97;;;;;;;27.59;34.25;101380.75;4973545;28;19949;-71
2023/09/10 09:30:07;;;;;;;7.93;5.78;;;;;;;27.68;34.08;101385.81;4987264;28;20054;-72
2023/09/10 09:32:39;;;;;;;6.10;4.97;;;;;;;27.77;34.26;101384.44;4987257;28;20068;-74
2023/09/10 09:35:10;;;;;;;7.32;4.65;;;;;;;27.83;33.97;101377.00;4998949;28;20122;-72
2023/09/10 09:37:38;;;;;;;7.53;5.55;;;;;;;27.86;34.11;101368.94;4985826;28;20052;-73
2023/09/10 09:40:09;;;;;;;7.65;5.88;;;;;;;27.97;33.75;101372.03;4988610;28;20442;-71
2023/09/10 09:42:37;;;;;;;7.85;5.78;;;;;;;28.03;33.58;101371.94;4988812;28;20054;-72
2023/09/10 09:45:06;;;;;;;7.90;5.60;;;;;;;28.09;33.44;101379.44;4989392;28;20038;-72
2023/09/10 09:47:34;;;;;;;8.02;5.70;;;;;;;28.17;33.43;101367.00;4988674;28;20124;-72
2023/09/10 09:50:03;;;;;;;8.90;5.00;;;;;;;28.24;33.53;101363.03;4988581;28;20138;-72
2023/09/10 09:52:31;;;;;;;8.88;5.70;;;;;;;28.29;33.34;101362.28;4988252;28;20129;-72
2023/09/10 09:54:59;;;;;;;8.15;4.95;;;;;;;28.36;33.28;101367.81;4989307;28;20118;-72
2023/09/10 09:57:27;;;;;;;7.20;5.50;;;;;;;28.42;33.07;101364.91;4988179;28;20046;-71
2023/09/10 09:59:56;;;;;;;9.95;5.57;;;;;;;28.51;33.18;101368.25;4988739;28;20042;-72
2023/09/10 10:02:24;;;;;;;9.45;5.80;;;;;;;28.55;33.12;101364.69;4985831;28;20050;-73
2023/09/10 10:04:55;;;;;;;8.32;5.63;;;;;;;28.64;32.27;101362.38;5001677;28;20075;-73
2023/09/10 10:07:26;;;;;;;7.82;6.00;;;;;;;28.70;32.38;101358.59;4985456;28;20043;-73
2023/09/10 10:10:15;;;;;;;6.97;5.00;;;;;;;28.79;32.87;101361.94;4985191;28;20405;-73
2023/09/10 10:12:45;;;;;;;6.93;5.40;;;;;;;28.85;32.85;101358.16;4987040;28;20046;-74
2023/09/10 10:15:14;;;;;;;6.20;5.18;;;;;;;28.91;32.94;101349.59;4986359;28;20034;-71
2023/09/10 10:17:43;;;;;;;7.97;5.38;;;;;;;28.99;32.43;101345.53;4999960;28;20069;-73
2023/09/10 10:20:12;;;;;;;7.53;5.00;;;;;;;29.09;32.40;101347.75;4984863;28;20047;-74
2023/09/10 10:22:42;;;;;;;6.65;4.63;;;;;;;29.18;32.59;101340.63;4985710;28;20046;-71
2023/09/10 10:25:11;;;;;;;6.97;5.32;;;;;;;29.23;32.41;101346.38;4986793;28;20112;-72
2023/09/10 10:27:42;;;;;;;6.47;4.97;;;;;;;29.34;32.48;101340.75;4984308;28;20046;-73
2023/09/10 10:30:12;;;;;;;8.77;5.15;;;;;;;29.41;32.12;101351.06;4983258;28;20042;-73
2023/09/10 10:32:42;;;;;;;9.98;5.40;;;;;;;29.51;31.84;101351.28;4987629;28;20050;-71
2023/09/10 10:35:10;;;;;;;6.78;5.38;;;;;;;29.59;31.79;101339.59;4966597;28;20065;-72
2023/09/10 10:37:47;;;;;;;7.85;5.05;;;;;;;29.71;31.22;101341.28;5000623;28;20053;-71
2023/09/10 10:40:19;;;;;;;7.63;4.82;;;;;;;29.79;31.38;101334.41;4982530;28;20034;-73
2023/09/10 10:42:50;;;;;;;;;;;;;;;29.51;31.86;101331.53;4985996;28;20129;-73
2023/09/10 10:45:19;;;;;;;6.65;4.10;;;;;;;29.87;31.50;101341.63;4984287;28;19921;-71
2023/09/10 10:47:48;;;;;;;7.07;4.72;;;;;;;29.99;31.38;101332.00;4981827;28;20347;-71
2023/09/10 10:50:21;;;;;;;6.55;4.60;;;;;;;30.11;30.63;101331.94;4986644;28;20050;-72
2023/09/10 10:52:59;;;;;;;6.75;4.68;;;;;;;30.18;30.09;101328.94;4986134;28;20046;-72
2023/09/10 10:55:28;;;;;;;7.25;4.60;;;;;;;30.21;30.85;101323.66;4985576;28;20061;-77
2023/09/10 10:57:56;;;;;;;7.57;5.15;;;;;;;30.28;30.97;101323.53;4988132;28;20412;-73
2023/09/10 11:00:25;;;;;;;8.20;5.05;;;;;;;30.32;30.63;101314.31;4981267;28;20474;-72
2023/09/10 11:03:09;;;;;;;7.43;4.85;;;;;;;30.40;29.93;101316.72;4984162;28;20074;-70
2023/09/10 11:06:06;;;;;;;6.75;4.80;;;;;;;30.43;29.78;101313.34;4984856;28;20573;-75
2023/09/10 11:08:38;;;;;;;6.57;4.32;;;;;;;30.51;29.86;101312.06;5004440;28;20050;-76
2023/09/10 11:11:08;;;;;;;6.95;4.60;;;;;;;30.54;30.23;101307.88;4980698;28;20042;-73
2023/09/10 11:14:01;;;;;;;6.90;4.68;;;;;;;30.61;30.36;101306.59;4983558;28;20122;-74
2023/09/10 11:16:30;;;;;;;6.97;4.68;;;;;;;30.65;29.92;101307.81;4998618;28;20061;-73
2023/09/10 11:18:59;;;;;;;7.65;4.78;;;;;;;30.70;30.12;101293.75;4985701;28;20124;-74
2023/09/10 11:22:00;;;;;;;6.68;4.75;;;;;;;30.78;29.73;101298.16;4984224;28;20281;-74
2023/09/10 11:24:32;;;;;;;6.23;4.90;;;;;;;30.81;29.40;101304.16;4983607;28;20129;-74
2023/09/10 11:27:21;;;;;;;8.68;5.25;;;;;;;30.85;29.50;101296.84;4984978;28;20042;-73
2023/09/10 11:30:04;;;;;;;6.05;4.70;;;;;;;30.93;29.17;101297.53;4978511;28;20053;-74
2023/09/10 11:32:32;;;;;;;5.38;4.57;;;;;;;30.97;29.43;101296.75;4983618;28;20134;-73
2023/09/10 11:35:26;;;;;;;6.78;5.10;;;;;;;31.02;28.73;101295.97;4987321;28;20066;-73
2023/09/10 11:37:56;;;;;;;5.60;4.75;;;;;;;31.08;28.80;101294.91;4984812;28;20039;-74
2023/09/10 11:40:26;;;;;;;5.70;4.95;;;;;;;31.13;28.69;101293.03;4986605;28;20054;-73
2023/09/10 11:42:54;;;;;;;6.32;4.45;;;;;;;31.16;28.87;101295.31;4984639;28;20034;-73
2023/09/10 11:45:23;;;;;;;6.28;4.65;;;;;;;31.19;28.44;101291.16;4980282;28;20425;-74